Time;durP1;ratioP1;P1;durP2;ratioP2;P2;SDS_P1;SDS_P2;PMS_P1;PMS_P2;Temp;Humidity;BMP_temperature;BMP_pressure;BME280_temperature;BME280_humidity;BME280_pressure;Samples;Min_cycle;Max_cycle;Signal;HPM_P1;HPM_P2
2022/11/05 00:11:01;;;;;;;11.37;10.17;;;9.40;99.90;;;-141.84;80.28;18984.72;5032509;28;20233;-64
2022/11/05 00:19:08;;;;;;;13.63;10.33;;;9.40;99.90;;;-141.84;79.78;18984.72;5012664;28;20233;-66
2022/11/05 00:27:11;;;;;;;11.30;10.03;;;9.40;99.90;;;-141.84;79.38;18984.72;5012665;28;20241;-63
2022/11/05 00:29:39;;;;;;;11.30;9.20;;;9.40;99.90;;;-141.84;79.01;19025.38;5012491;28;20277;-64
2022/11/05 00:32:07;;;;;;;12.93;9.87;;;9.40;99.90;;;-141.84;79.31;19015.19;5012814;28;20238;-65
2022/11/05 00:34:36;;;;;;;14.83;10.13;;;9.40;99.90;;;-141.84;78.51;19015.19;5012854;28;20237;-64
2022/11/05 00:37:04;;;;;;;13.17;9.60;;;9.50;99.90;;;-141.84;77.99;19005.03;5009883;28;20231;-64
2022/11/05 00:39:32;;;;;;;11.83;9.43;;;9.50;99.90;;;-141.84;78.64;19000.97;4993093;28;20227;-64
2022/11/05 00:45:02;;;;;;;11.93;9.77;;;9.50;99.90;;;-141.84;78.07;18996.91;4992718;28;20285;-65
2022/11/05 00:50:30;;;;;;;12.90;9.60;;;9.60;99.90;;;-141.84;77.76;19017.25;5007685;28;20281;-65
2022/11/05 00:53:00;;;;;;;12.50;9.37;;;9.50;99.90;;;-141.84;78.85;18994.88;5011692;28;20217;-64
2022/11/05 00:55:34;;;;;;;13.20;9.23;;;9.50;99.90;;;-141.84;78.60;19009.09;5012534;28;20681;-65
2022/11/05 00:58:04;;;;;;;12.80;10.00;;;9.50;99.90;;;-141.84;78.43;19029.44;5012607;28;20230;-64
2022/11/05 01:00:36;;;;;;;13.03;9.77;;;9.40;99.90;;;-141.84;78.55;19021.31;5012393;28;20234;-64
2022/11/05 01:03:08;;;;;;;12.13;9.63;;;9.50;99.90;;;-141.84;78.29;19021.31;5012345;28;20249;-63
2022/11/05 01:05:43;;;;;;;16.73;9.63;;;9.40;99.90;;;-141.84;78.30;19003.00;5012020;28;20227;-66
2022/11/05 01:08:11;;;;;;;15.00;9.23;;;9.40;99.90;;;-141.84;78.63;18982.69;5012007;28;20236;-63
2022/11/05 01:10:43;;;;;;;12.17;9.23;;;9.40;99.90;;;-141.84;78.41;18992.84;5012361;28;20346;-64
2022/11/05 01:13:16;;;;;;;11.67;9.20;;;9.40;99.90;;;-141.84;78.52;19005.03;5012520;28;20210;-65
2022/11/05 01:15:47;;;;;;;13.50;9.87;;;9.40;99.90;;;-141.84;78.85;18988.78;5012675;28;20207;-64
2022/11/05 01:18:15;;;;;;;12.53;9.90;;;9.30;99.90;;;-141.84;79.26;19003.00;5028371;28;20610;-64
2022/11/05 01:20:43;;;;;;;11.40;9.57;;;9.40;99.90;;;-141.84;79.14;19005.03;5031989;28;20226;-63
2022/11/05 01:23:11;;;;;;;12.87;10.33;;;9.30;99.90;;;-141.84;79.61;18974.56;5031880;28;20233;-63
2022/11/05 01:25:41;;;;;;;11.30;9.43;;;9.30;99.90;;;-141.84;79.14;18994.88;5031715;28;20230;-63
2022/11/05 01:28:10;;;;;;;12.07;9.70;;;9.30;99.90;;;-141.84;79.50;18966.44;5032048;28;20194;-64
2022/11/05 01:30:38;;;;;;;12.33;9.73;;;9.30;99.90;;;-141.84;79.66;18982.69;5031737;28;20229;-63
2022/11/05 01:33:08;;;;;;;14.67;10.10;;;9.30;99.90;;;-141.84;79.77;18978.63;5031639;28;20229;-64
2022/11/05 01:35:36;;;;;;;15.07;10.27;;;9.30;99.90;;;-141.84;79.91;18994.88;5031685;28;20232;-62
2022/11/05 01:38:04;;;;;;;14.13;10.37;;;9.30;99.90;;;-141.84;80.39;18984.72;5019914;28;20238;-64
2022/11/05 01:40:32;;;;;;;13.33;11.07;;;9.20;99.90;;;-141.84;81.11;18980.66;5011631;28;20206;-63
2022/11/05 01:43:00;;;;;;;13.47;10.67;;;9.20;99.90;;;-141.84;82.11;18927.84;5012412;28;20206;-62
2022/11/05 01:45:29;;;;;;;14.97;10.27;;;9.10;99.90;;;-141.84;82.17;18929.88;5011476;28;20249;-63
2022/11/05 01:48:13;;;;;;;12.27;9.70;;;9.00;99.90;;;-141.84;82.85;18935.97;5011626;28;20227;-64
2022/11/05 01:50:49;;;;;;;14.80;11.00;;;9.10;99.90;;;-141.84;83.23;18925.81;5030733;28;20233;-65
2022/11/05 01:53:29;;;;;;;14.03;10.83;;;9.10;99.90;;;-141.84;83.78;18907.50;5021849;28;20241;-63
2022/11/05 01:56:03;;;;;;;15.80;11.37;;;9.10;99.90;;;-141.84;83.33;18929.88;5011792;28;20233;-63
2022/11/05 01:58:41;;;;;;;15.57;12.03;;;9.00;99.90;;;-141.84;82.29;18954.25;5011569;28;20207;-65
2022/11/05 02:01:09;;;;;;;12.97;10.37;;;9.00;99.90;;;-141.84;83.20;18909.53;5012420;28;20187;-63
2022/11/05 02:03:39;;;;;;;15.03;12.03;;;9.00;99.90;;;-141.84;83.20;18901.41;5011468;28;20237;-63
2022/11/05 02:06:08;;;;;;;16.30;11.20;;;9.00;99.90;;;-141.84;82.58;18921.75;5011403;28;20735;-64
2022/11/05 02:08:55;;;;;;;16.67;11.93;;;9.00;99.90;;;-141.84;83.22;18903.44;5027448;28;20229;-64
2022/11/05 02:11:24;;;;;;;13.70;10.93;;;8.90;99.90;;;-141.84;83.47;18895.31;5030756;28;20225;-64
2022/11/05 02:13:52;;;;;;;14.20;10.70;;;8.90;99.90;;;-141.84;83.59;18893.28;5030591;28;20296;-64
2022/11/05 02:16:37;;;;;;;14.57;11.40;;;9.00;99.90;;;-141.84;82.74;18907.50;5030879;28;20202;-63
2022/11/05 02:19:51;;;;;;;15.20;11.13;;;9.00;99.90;;;-141.84;82.34;18940.03;5033870;28;20209;-63
2022/11/05 02:23:05;;;;;;;14.80;10.57;;;9.00;99.90;;;-141.84;82.30;18887.19;5035399;28;20229;-64
2022/11/05 02:26:30;;;;;;;14.87;10.90;;;9.00;99.90;;;-141.84;82.99;18911.56;5035117;28;20662;-64
2022/11/05 02:30:02;;;;;;;13.33;10.57;;;8.90;99.90;;;-141.84;82.92;18919.69;5015281;28;20219;-63
2022/11/05 02:33:09;;;;;;;17.40;11.40;;;8.90;99.90;;;-141.84;82.74;18917.66;5015148;28;20686;-65
2022/11/05 02:36:00;;;;;;;15.60;11.20;;;8.90;99.90;;;-141.84;82.83;18915.63;5015322;28;20230;-63
2022/11/05 02:38:42;;;;;;;14.97;10.90;;;9.00;99.90;;;-141.84;82.83;18911.56;5029953;28;20229;-64
2022/11/05 02:41:23;;;;;;;13.30;10.73;;;8.90;99.90;;;-141.84;83.20;18895.31;5034924;28;20233;-63
2022/11/05 02:44:12;;;;;;;14.83;11.53;;;9.00;99.90;;;-141.84;83.54;18911.56;5034749;28;20252;-64
2022/11/05 02:46:48;;;;;;;15.23;11.50;;;9.00;99.90;;;-141.84;83.10;18913.59;5034548;28;20233;-67
2022/11/05 02:49:33;;;;;;;14.00;10.90;;;8.90;99.90;;;-141.84;82.31;18917.66;5027402;28;20207;-64
2022/11/05 02:52:09;;;;;;;13.30;10.47;;;9.00;99.90;;;-141.84;83.03;18879.06;5014998;28;20187;-65
2022/11/05 02:54:44;;;;;;;13.63;10.53;;;9.00;99.90;;;-141.84;83.14;18868.91;5014204;28;20226;-65
2022/11/05 02:57:12;;;;;;;13.93;10.27;;;9.00;99.90;;;-141.84;83.33;18899.38;5014263;28;20276;-63
2022/11/05 02:59:40;;;;;;;17.57;11.30;;;8.90;99.90;;;-141.84;83.61;18897.34;5013686;28;20653;-64
2022/11/05 03:02:08;;;;;;;13.97;10.50;;;8.90;99.90;;;-141.84;84.09;18879.06;5013470;28;20656;-65
2022/11/05 03:04:38;;;;;;;16.37;11.33;;;8.90;99.90;;;-141.84;84.28;18911.56;5013841;28;20667;-64
2022/11/05 03:07:44;;;;;;;14.37;10.80;;;8.90;99.90;;;-141.84;84.33;18866.88;5017687;28;20213;-62
2022/11/05 03:10:36;;;;;;;14.97;10.37;;;8.90;99.90;;;-141.84;84.36;18864.84;5013642;28;20253;-64
2022/11/05 03:13:14;;;;;;;14.23;10.20;;;8.90;99.90;;;-141.84;84.76;18842.50;5014183;28;20601;-65
2022/11/05 03:15:58;;;;;;;14.97;10.43;;;8.90;99.90;;;-141.84;84.96;18846.56;5013745;28;20206;-65
2022/11/05 03:18:38;;;;;;;16.03;10.90;;;8.80;99.90;;;-141.84;84.90;18866.88;5013636;28;20241;-64
2022/11/05 03:21:15;;;;;;;14.83;10.07;;;8.80;99.90;;;-141.84;84.98;18883.13;5013276;28;20345;-63
2022/11/05 03:23:52;;;;;;;13.60;10.03;;;8.80;99.90;;;-141.84;85.45;18862.81;5013365;28;20752;-64
2022/11/05 03:26:29;;;;;;;13.37;10.63;;;8.70;99.90;;;-141.84;85.75;18858.75;5013236;28;20222;-64
2022/11/05 03:29:05;;;;;;;14.07;10.50;;;8.70;99.90;;;-141.84;85.90;18891.25;5012984;28;20230;-64
2022/11/05 03:31:36;;;;;;;13.17;10.03;;;8.70;99.90;;;-141.84;86.06;18836.41;5015966;28;20265;-63
2022/11/05 03:34:07;;;;;;;17.13;10.03;;;8.70;99.90;;;-141.84;85.79;18828.28;5033333;28;20233;-65
2022/11/05 03:36:41;;;;;;;12.07;9.57;;;8.70;99.90;;;-141.84;85.92;18822.19;5013356;28;20602;-64
2022/11/05 03:39:17;;;;;;;14.90;10.60;;;8.70;99.90;;;-141.84;86.08;18834.38;4993019;28;20281;-63
2022/11/05 03:41:51;;;;;;;14.73;10.03;;;8.70;99.90;;;-141.84;86.50;18818.09;4993262;28;20234;-63
2022/11/05 03:44:27;;;;;;;14.60;10.57;;;8.70;99.90;;;-141.84;86.26;18824.22;4993102;28;20610;-64
2022/11/05 03:47:04;;;;;;;14.43;10.47;;;8.70;99.90;;;-141.84;86.19;18854.69;4993169;28;20230;-64
2022/11/05 03:49:39;;;;;;;18.03;10.90;;;8.70;99.90;;;-141.84;86.18;18832.34;5002937;28;20646;-65
2022/11/05 03:52:16;;;;;;;16.30;9.67;;;8.70;99.90;;;-141.84;86.22;18809.97;5012995;28;20697;-65
2022/11/05 03:54:45;;;;;;;13.70;10.23;;;8.80;99.90;;;-141.84;86.44;18830.31;5032606;28;20574;-64
2022/11/05 03:57:20;;;;;;;14.97;10.03;;;8.80;99.90;;;-141.84;86.52;18828.28;5016064;28;20223;-63
2022/11/05 03:59:50;;;;;;;14.43;10.30;;;8.80;99.90;;;-141.84;86.41;18824.22;5025141;28;20229;-65
2022/11/05 04:02:24;;;;;;;15.97;10.10;;;8.80;99.90;;;-141.84;86.18;18834.38;5023482;28;20233;-64
2022/11/05 04:04:53;;;;;;;14.07;9.93;;;8.80;99.90;;;-141.84;85.71;18828.28;5017684;28;20236;-64
2022/11/05 04:18:23;;;;;;;13.17;10.20;;;8.80;99.90;;;-141.84;85.40;18852.66;5029224;28;20283;-64
2022/11/05 04:26:23;;;;;;;13.83;10.20;;;8.60;99.90;;;-141.84;85.92;18834.38;5031703;28;20503;-64
2022/11/05 04:31:37;;;;;;;13.10;10.20;;;8.50;99.90;;;-141.84;86.00;18803.88;5032074;28;20633;-63
2022/11/05 04:34:05;;;;;;;14.03;10.67;;;8.50;99.90;;;-141.84;86.08;18812.00;5031936;28;20609;-66
2022/11/05 04:36:33;;;;;;;17.37;13.80;;;8.40;99.90;;;-141.84;86.08;18805.91;5031434;28;20221;-63
2022/11/05 04:39:03;;;;;;;18.53;14.00;;;8.50;99.90;;;-141.84;86.11;18830.31;5011968;28;20247;-64
2022/11/05 04:41:31;;;;;;;16.87;12.83;;;8.30;99.90;;;-141.84;86.06;18769.34;5015595;28;20222;-65
2022/11/05 04:43:59;;;;;;;16.70;11.77;;;8.30;99.90;;;-141.84;86.65;18775.44;5031025;28;20729;-67
2022/11/05 04:46:27;;;;;;;14.40;11.30;;;8.20;99.90;;;-141.84;86.80;18749.03;5031360;28;20249;-66
2022/11/05 04:48:55;;;;;;;16.13;10.17;;;8.20;99.90;;;-141.84;87.14;18761.22;5031794;28;20198;-65
2022/11/05 04:51:23;;;;;;;14.00;9.67;;;8.10;99.90;;;-141.84;87.43;18783.56;5031249;28;20225;-64
2022/11/05 04:53:51;;;;;;;15.80;12.23;;;8.10;99.90;;;-141.84;87.79;18759.19;5031249;28;20638;-63
2022/11/05 04:56:24;;;;;;;14.67;12.17;;;8.10;99.90;;;-141.84;88.01;18775.44;5031347;28;20229;-63
2022/11/05 04:58:52;;;;;;;14.47;11.80;;;8.10;99.90;;;-141.84;88.27;18738.88;5030972;28;20221;-63
2022/11/05 05:01:23;;;;;;;15.53;11.60;;;8.00;99.90;;;-141.84;87.80;18753.09;5031404;28;20217;-64
2022/11/05 05:03:54;;;;;;;16.13;10.73;;;8.00;99.90;;;-141.84;87.80;18736.84;5031291;28;20718;-63
2022/11/05 05:06:23;;;;;;;14.13;10.47;;;8.00;99.90;;;-141.84;87.90;18728.72;5031502;28;20238;-66
2022/11/05 05:08:51;;;;;;;15.93;9.50;;;8.00;99.90;;;-141.84;88.45;18744.97;5030757;28;20605;-64
2022/11/05 05:11:22;;;;;;;13.73;9.33;;;7.90;99.90;;;-141.84;88.66;18753.09;5031210;28;20233;-64
2022/11/05 05:13:50;;;;;;;13.87;9.80;;;7.90;99.90;;;-141.84;88.85;18728.72;5030941;28;20300;-64
2022/11/05 05:16:22;;;;;;;14.10;9.77;;;7.80;99.90;;;-141.84;89.04;18714.50;5030831;28;20260;-64
2022/11/05 05:18:50;;;;;;;14.67;9.90;;;7.80;99.90;;;-141.84;89.12;18728.72;5031412;28;20201;-63
2022/11/05 05:21:39;;;;;;;15.27;10.43;;;7.70;99.90;;;-141.84;89.12;18736.84;5031066;28;20226;-64
2022/11/05 05:24:10;;;;;;;14.33;9.73;;;7.70;99.90;;;-141.84;89.08;18738.88;5030998;28;20226;-64
2022/11/05 05:26:43;;;;;;;15.13;8.83;;;7.70;99.90;;;-141.84;89.06;18736.84;5031019;28;20299;-63
2022/11/05 05:29:13;;;;;;;15.63;9.20;;;7.70;99.90;;;-141.84;89.11;18724.66;5030573;28;20226;-64
2022/11/05 05:31:41;;;;;;;11.90;8.93;;;7.60;99.90;;;-141.84;89.43;18694.16;5030948;28;20233;-63
2022/11/05 05:34:12;;;;;;;11.97;8.63;;;7.60;99.90;;;-141.84;89.70;18684.00;5031194;28;20198;-64
2022/11/05 05:36:41;;;;;;;12.20;9.53;;;7.60;99.90;;;-141.84;89.94;18720.59;5030873;28;20218;-64
2022/11/05 05:39:10;;;;;;;12.17;8.83;;;7.60;99.90;;;-141.84;89.59;18720.59;5026677;28;20233;-64
2022/11/05 05:41:40;;;;;;;14.43;8.97;;;7.60;99.90;;;-141.84;89.20;18706.38;5030755;28;20230;-63
2022/11/05 05:44:08;;;;;;;13.93;9.27;;;7.60;99.90;;;-141.84;89.24;18686.03;5030424;28;20236;-63
2022/11/05 05:46:36;;;;;;;11.93;8.50;;;7.50;99.90;;;-141.84;89.25;18696.19;4991447;28;20239;-64
2022/11/05 05:49:04;;;;;;;14.00;9.10;;;7.50;99.90;;;-141.84;88.84;18700.25;4991478;28;20208;-63
2022/11/05 05:51:39;;;;;;;14.17;8.40;;;7.50;99.90;;;-141.84;88.77;18696.19;4991335;28;20237;-64
2022/11/05 05:54:07;;;;;;;11.87;8.60;;;7.50;99.90;;;-141.84;88.93;18681.97;4997385;28;20253;-64
2022/11/05 05:56:35;;;;;;;11.50;8.03;;;7.50;99.90;;;-141.84;89.21;18692.13;4997517;28;20227;-66
2022/11/05 05:59:06;;;;;;;11.97;8.80;;;7.40;99.90;;;-141.84;89.62;18667.75;4997366;28;20238;-65
2022/11/05 06:01:34;;;;;;;14.03;8.37;;;7.40;99.90;;;-141.84;89.89;18696.19;4997918;28;20191;-64
2022/11/05 06:04:02;;;;;;;11.57;8.73;;;7.30;99.90;;;-141.84;90.15;18675.88;4998304;28;20213;-63
2022/11/05 06:06:31;;;;;;;12.63;8.50;;;7.30;99.90;;;-141.84;90.32;18651.50;4997554;28;20235;-63
2022/11/05 06:08:59;;;;;;;12.67;9.73;;;7.30;99.90;;;-141.84;90.57;18690.09;4997104;28;20234;-63
2022/11/05 06:11:27;;;;;;;14.70;10.17;;;7.20;99.90;;;-141.84;90.91;18663.69;4997563;28;20226;-63
2022/11/05 06:13:55;;;;;;;12.57;9.63;;;7.20;99.90;;;-141.84;91.00;18653.53;4997120;28;20726;-65
2022/11/05 06:16:24;;;;;;;13.13;9.17;;;7.20;99.90;;;-141.84;91.39;18663.69;4997621;28;20207;-64
2022/11/05 06:18:52;;;;;;;11.43;8.80;;;7.20;99.90;;;-141.84;91.46;18655.56;4998118;28;20207;-65
2022/11/05 06:21:20;;;;;;;12.00;8.63;;;7.10;99.90;;;-141.84;91.65;18639.31;4997323;28;20478;-63
2022/11/05 06:23:48;;;;;;;14.03;8.93;;;7.20;99.90;;;-141.84;91.75;18645.41;4997486;28;20239;-64
2022/11/05 06:26:18;;;;;;;12.93;8.80;;;7.20;99.90;;;-141.84;91.72;18655.56;4997603;28;20222;-63
2022/11/05 06:28:46;;;;;;;11.43;8.57;;;7.10;99.90;;;-141.84;91.89;18600.72;4997607;28;20230;-63
2022/11/05 06:31:16;;;;;;;14.43;8.00;;;7.10;99.90;;;-141.84;92.02;18598.69;4998319;28;20290;-64
2022/11/05 06:33:46;;;;;;;12.67;8.57;;;7.10;99.90;;;-141.84;91.83;18602.75;4997097;28;20227;-64
2022/11/05 06:36:16;;;;;;;11.37;8.13;;;7.10;99.90;;;-141.84;92.11;18598.69;4997548;28;20222;-64
2022/11/05 06:38:44;;;;;;;13.77;9.57;;;7.10;99.90;;;-141.84;92.25;18588.53;4997315;28;20227;-63
2022/11/05 06:41:12;;;;;;;16.77;10.80;;;7.10;99.90;;;-141.84;92.33;18606.81;4997331;28;20286;-63
2022/11/05 06:43:41;;;;;;;20.27;14.70;;;7.10;99.90;;;-141.84;92.24;18598.69;4996932;28;20226;-64
2022/11/05 06:46:10;;;;;;;19.27;15.03;;;7.10;99.90;;;-141.84;92.27;18590.56;5030004;28;20229;-65
2022/11/05 06:48:39;;;;;;;22.17;16.37;;;7.10;99.90;;;-141.84;91.78;18592.59;5036615;28;20225;-64
2022/11/05 06:51:09;;;;;;;21.17;16.60;;;7.20;99.90;;;-141.84;91.60;18600.72;5036607;28;20224;-64
2022/11/05 06:53:37;;;;;;;20.13;15.87;;;7.20;99.90;;;-141.84;91.45;18608.84;5036327;28;20225;-64
2022/11/05 06:56:07;;;;;;;23.00;15.03;;;7.20;99.90;;;-141.84;91.44;18582.44;5036368;28;20233;-64
2022/11/05 06:58:36;;;;;;;17.77;12.50;;;7.20;99.90;;;-141.84;91.28;18570.22;5036360;28;20240;-63
2022/11/05 07:01:07;;;;;;;16.83;11.67;;;7.20;99.90;;;-141.84;91.15;18598.69;5036844;28;20237;-64
2022/11/05 07:03:37;;;;;;;13.67;11.33;;;7.30;99.90;;;-141.84;90.85;18619.00;5035053;28;20233;-64
2022/11/05 07:06:08;;;;;;;16.53;10.40;;;7.30;99.90;;;-141.84;90.69;18614.94;5033036;28;20349;-64
2022/11/05 07:08:37;;;;;;;14.23;10.47;;;7.30;99.90;;;-141.84;90.56;18598.69;5033046;28;20284;-63
2022/11/05 07:11:06;;;;;;;11.00;9.33;;;7.30;99.90;;;-141.84;90.41;18647.44;5033224;28;20257;-64
2022/11/05 07:13:34;;;;;;;15.13;10.23;;;7.20;99.90;;;-141.84;89.89;18627.13;5033127;28;20202;-64
2022/11/05 07:16:02;;;;;;;13.77;9.70;;;7.20;99.90;;;-141.84;90.12;18631.19;5033238;28;20209;-63
2022/11/05 07:18:30;;;;;;;14.67;10.53;;;7.20;99.90;;;-141.84;90.03;18623.06;5032947;28;20233;-63
2022/11/05 07:20:59;;;;;;;12.53;10.10;;;7.30;99.90;;;-141.84;89.23;18612.91;5032675;28;20705;-64
2022/11/05 07:23:29;;;;;;;14.43;10.73;;;7.30;99.90;;;-141.84;89.38;18619.00;5032504;28;20248;-64
2022/11/05 07:25:59;;;;;;;12.17;10.07;;;7.30;99.90;;;-141.84;89.20;18627.13;5032865;28;20233;-63
2022/11/05 07:28:27;;;;;;;14.87;10.27;;;7.40;99.90;;;-141.84;89.16;18633.22;5032910;28;20202;-65
2022/11/05 07:30:55;;;;;;;13.80;9.53;;;7.50;99.90;;;-141.84;88.68;18643.38;5022763;28;20207;-64
2022/11/05 07:33:23;;;;;;;11.90;9.50;;;7.60;99.90;;;-141.84;88.25;18651.50;5013097;28;20226;-63
2022/11/05 07:35:51;;;;;;;12.60;10.67;;;7.70;99.90;;;-141.84;87.56;18675.88;5012831;28;20281;-64
2022/11/05 07:38:19;;;;;;;16.90;11.53;;;7.90;99.90;;;-141.84;87.01;18679.94;5026602;28;20241;-63
2022/11/05 07:40:48;;;;;;;15.07;11.60;;;8.00;99.90;;;-141.84;86.35;18673.84;5032647;28;20230;-63
2022/11/05 07:43:16;;;;;;;17.33;13.10;;;8.20;99.90;;;-141.84;85.89;18704.31;5032572;28;20202;-64
2022/11/05 07:45:46;;;;;;;17.77;13.57;;;8.10;99.90;;;-141.84;84.54;18736.84;5032807;28;20625;-63
2022/11/05 07:48:14;;;;;;;18.03;12.53;;;8.30;99.90;;;-141.84;83.50;18765.28;5032345;28;20229;-64
2022/11/05 07:50:42;;;;;;;15.13;11.83;;;8.40;99.90;;;-141.84;83.30;18712.47;5032094;28;20226;-65
2022/11/05 07:53:12;;;;;;;17.00;11.80;;;8.40;99.90;;;-141.84;82.72;18744.97;5032211;28;20238;-64
2022/11/05 07:55:42;;;;;;;16.53;11.93;;;8.50;99.90;;;-141.84;80.50;18812.00;5032536;28;20256;-63
2022/11/05 07:58:12;;;;;;;17.27;12.67;;;8.70;99.90;;;-141.84;80.32;18838.44;5032487;28;20266;-64
2022/11/05 08:00:41;;;;;;;18.73;12.03;;;8.60;99.90;;;-141.84;79.77;18793.72;5032491;28;20234;-63
2022/11/05 08:03:13;;;;;;;15.50;11.83;;;8.70;99.90;;;-141.84;79.71;18854.69;5032515;28;20595;-63
2022/11/05 08:05:45;;;;;;;14.13;11.27;;;8.80;99.90;;;-141.84;78.82;18856.72;5032110;28;20230;-64
2022/11/05 08:08:16;;;;;;;13.83;11.00;;;8.90;99.90;;;-141.84;78.48;18875.00;5032110;28;20230;-65
2022/11/05 08:10:45;;;;;;;14.47;10.63;;;8.90;99.90;;;-141.84;78.32;18903.44;5031642;28;20222;-64
2022/11/05 08:13:15;;;;;;;14.83;10.53;;;9.10;99.90;;;-141.84;77.25;18889.22;5031854;28;20260;-65
2022/11/05 08:15:44;;;;;;;15.87;10.20;;;9.20;99.90;;;-141.84;75.77;18948.16;5031023;28;20202;-65
2022/11/05 08:18:15;;;;;;;13.73;10.20;;;9.30;99.90;;;-141.84;76.05;18952.22;5031602;28;20238;-64
2022/11/05 08:20:45;;;;;;;14.23;10.47;;;9.40;99.90;;;-141.84;76.64;18923.78;5030811;28;20234;-64
2022/11/05 08:23:13;;;;;;;14.90;10.90;;;9.50;99.90;;;-141.84;75.53;19015.19;5031944;28;20674;-64
2022/11/05 08:25:42;;;;;;;12.83;9.67;;;9.50;99.90;;;-141.84;75.70;19000.97;5031443;28;20283;-65
2022/11/05 08:28:14;;;;;;;12.53;9.77;;;9.70;99.90;;;-141.84;75.24;18956.28;5031891;28;20206;-64
2022/11/05 08:30:42;;;;;;;14.43;10.53;;;9.80;99.90;;;-141.84;74.90;19000.97;5031834;28;20260;-65
2022/11/05 08:33:12;;;;;;;18.30;10.10;;;9.90;99.90;;;-141.84;74.35;19031.47;5031725;28;20260;-64
2022/11/05 08:35:41;;;;;;;14.93;9.43;;;10.00;99.90;;;-141.84;73.66;19027.41;5031682;28;20283;-64
2022/11/05 08:38:13;;;;;;;12.43;8.20;;;10.00;99.90;;;-141.84;72.46;19084.28;5031856;28;20233;-65
2022/11/05 08:40:44;;;;;;;9.13;7.20;;;10.10;99.90;;;-141.84;72.55;19057.88;5030832;28;20234;-65
2022/11/05 08:43:14;;;;;;;11.73;7.63;;;10.10;99.90;;;-141.84;72.83;19090.38;5031589;28;20197;-64
2022/11/05 08:45:42;;;;;;;13.97;7.50;;;10.20;99.90;;;-141.84;71.94;19124.94;5031337;28;20544;-62
2022/11/05 08:48:14;;;;;;;10.43;7.40;;;10.30;99.90;;;-141.84;71.55;19114.78;5031335;28;20250;-63
2022/11/05 08:50:43;;;;;;;13.30;7.20;;;10.40;99.90;;;-141.84;71.55;19133.06;5030851;28;20717;-63
2022/11/05 08:53:12;;;;;;;11.00;7.23;;;10.40;99.90;;;-141.84;71.46;19141.19;5030790;28;20230;-64
2022/11/05 08:55:41;;;;;;;11.63;6.40;;;10.50;99.90;;;-141.84;70.85;19161.50;5031091;28;20304;-63
2022/11/05 08:58:13;;;;;;;11.97;6.67;;;10.50;99.90;;;-141.84;71.11;19145.25;5031560;28;20201;-62
2022/11/05 09:00:45;;;;;;;16.53;6.50;;;10.50;99.90;;;-141.84;71.53;19135.09;5031199;28;20225;-63
2022/11/05 09:03:13;;;;;;;9.63;5.93;;;10.60;99.90;;;-141.84;71.17;19149.31;5030900;28;20251;-63
2022/11/05 09:05:43;;;;;;;10.63;6.50;;;10.60;99.90;;;-141.84;71.40;19110.72;5027762;28;20676;-63
2022/11/05 09:08:14;;;;;;;8.13;6.23;;;10.50;99.90;;;-141.84;72.47;19110.72;5018750;28;20732;-63
2022/11/05 09:10:43;;;;;;;7.37;5.40;;;10.40;99.90;;;-141.84;72.67;19110.72;5011892;28;20227;-63
2022/11/05 09:13:12;;;;;;;9.57;5.93;;;10.40;99.90;;;-141.84;72.01;19147.28;5012135;28;20203;-62
2022/11/05 09:15:48;;;;;;;11.60;6.50;;;10.40;99.90;;;-141.84;71.19;19175.72;5011879;28;20218;-63
2022/11/05 09:18:19;;;;;;;8.70;5.50;;;10.50;99.90;;;-141.84;70.97;19185.88;5011423;28;20234;-64
2022/11/05 09:20:47;;;;;;;10.30;5.97;;;10.70;99.90;;;-141.84;69.09;19228.56;5010681;28;20218;-63
2022/11/05 09:23:15;;;;;;;9.40;6.37;;;10.90;99.90;;;-141.84;68.25;19265.13;5020468;28;20226;-63
2022/11/05 09:25:44;;;;;;;11.30;5.17;;;11.10;99.90;;;-141.84;68.33;19293.59;5030890;28;20304;-63
2022/11/05 09:28:15;;;;;;;7.67;4.77;;;11.30;99.90;;;-141.84;68.43;19358.63;5030843;28;20202;-63
2022/11/05 09:30:48;;;;;;;8.60;4.20;;;11.40;99.90;;;-141.84;67.74;19297.66;5031812;28;20268;-62
2022/11/05 09:33:18;;;;;;;9.63;4.73;;;11.50;99.90;;;-141.84;67.43;19328.13;5014466;28;20230;-63
2022/11/05 09:35:47;;;;;;;10.35;5.75;;;11.60;99.90;;;-141.84;66.57;19346.44;5011087;28;20292;-63
2022/11/05 09:38:15;;;;;;;11.60;5.07;;;11.60;99.90;;;-141.84;66.90;19354.56;5011153;28;20237;-62
2022/11/05 09:40:57;;;;;;;9.83;5.20;;;11.50;99.90;;;-141.84;66.38;19374.88;5011180;28;20226;-64
2022/11/05 09:43:33;;;;;;;8.40;4.63;;;11.50;99.90;;;-141.84;65.25;19370.81;5011143;28;20557;-63
2022/11/05 09:46:12;;;;;;;9.63;4.80;;;11.70;99.90;;;-141.84;65.81;19368.78;5011428;28;20284;-63
2022/11/05 09:48:45;;;;;;;10.90;5.27;;;11.50;99.90;;;-141.84;66.20;19356.59;5010774;28;20233;-63
2022/11/05 09:51:16;;;;;;;9.65;4.40;;;11.50;99.90;;;-141.84;66.51;19362.69;5010751;28;20226;-62
2022/11/05 09:53:52;;;;;;;9.23;5.10;;;11.40;99.90;;;-141.84;66.26;19385.03;5010397;28;20540;-64
2022/11/05 09:56:23;;;;;;;8.73;4.93;;;11.50;99.90;;;-141.84;65.81;19376.91;5011220;28;20281;-63
2022/11/05 09:59:00;;;;;;;9.47;5.13;;;11.50;99.90;;;-141.84;66.19;19372.84;5011260;28;20227;-64
2022/11/05 10:01:35;;;;;;;9.43;5.67;;;11.60;99.90;;;-141.84;66.19;19378.94;5010618;28;20669;-64
2022/11/05 10:04:13;;;;;;;8.80;4.83;;;11.70;99.90;;;-141.84;65.32;19413.47;5006380;28;20202;-64
2022/11/05 10:06:49;;;;;;;7.90;4.40;;;11.70;99.90;;;-141.84;65.32;19403.31;5030074;28;20220;-63
2022/11/05 10:09:25;;;;;;;7.82;4.40;;;11.70;99.90;;;-141.84;65.10;19431.78;5010398;28;20222;-63
2022/11/05 10:11:58;;;;;;;7.38;4.57;;;11.90;99.90;;;-141.84;65.29;19470.38;5026400;28;20229;-63
2022/11/05 10:14:32;;;;;;;12.70;4.80;;;11.90;99.90;;;-141.84;65.19;19464.28;5030116;28;20233;-63
2022/11/05 10:17:11;;;;;;;8.57;4.47;;;12.00;99.90;;;-141.84;63.43;19500.88;5030563;28;20252;-63
2022/11/05 10:19:46;;;;;;;7.03;4.18;;;12.10;99.90;;;-141.84;64.13;19468.34;5029399;28;20221;-62
2022/11/05 10:22:18;;;;;;;4.43;3.40;;;12.10;99.90;;;-141.84;64.11;19480.53;5012415;28;20226;-62
2022/11/05 10:24:48;;;;;;;10.80;4.53;;;12.10;99.90;;;-141.84;63.96;19478.50;5010411;28;20227;-64
2022/11/05 10:27:23;;;;;;;12.07;4.80;;;12.00;99.90;;;-141.84;62.86;19502.91;5020061;28;20222;-66
2022/11/05 10:29:52;;;;;;;8.27;4.07;;;12.10;99.90;;;-141.84;63.04;19509.00;5023538;28;20225;-63
2022/11/05 10:32:30;;;;;;;10.68;4.70;;;12.20;99.90;;;-141.84;61.71;19561.84;5028948;28;20226;-62
2022/11/05 10:35:01;;;;;;;8.70;4.32;;;12.30;99.90;;;-141.84;63.35;19529.31;5029778;28;20226;-64
2022/11/05 10:37:31;;;;;;;10.73;4.50;;;12.10;99.90;;;-141.84;63.46;19541.50;5025311;28;20195;-64
2022/11/05 10:40:19;;;;;;;8.18;4.38;;;12.00;99.90;;;-141.84;63.50;19486.66;5023213;28;20665;-64
2022/11/05 10:43:03;;;;;;;8.57;4.10;;;11.90;99.90;;;-141.84;64.12;19480.53;5033266;28;20222;-63
2022/11/05 10:45:46;;;;;;;7.10;3.67;;;11.90;99.90;;;-141.84;63.59;19525.25;5032804;28;20225;-64
2022/11/05 10:48:38;;;;;;;6.38;3.28;;;12.00;99.90;;;-141.84;62.45;19598.41;5031045;28;20283;-67
2022/11/05 10:51:12;;;;;;;6.63;3.17;;;12.20;99.90;;;-141.84;61.36;19614.66;5032987;28;20257;-66
2022/11/05 10:53:54;;;;;;;10.35;3.42;;;12.40;99.90;;;-141.84;60.26;19653.28;5033095;28;20558;-67
2022/11/05 10:56:35;;;;;;;7.03;2.45;;;12.60;99.90;;;-141.84;60.79;19667.50;5033390;28;20230;-67
2022/11/05 10:59:06;;;;;;;5.20;2.80;;;12.70;99.90;;;-141.84;59.89;19693.94;5033411;28;20233;-67
2022/11/05 11:01:39;;;;;;;6.72;2.35;;;12.80;99.90;;;-141.84;58.66;19732.53;5030405;28;20675;-67
2022/11/05 11:04:20;;;;;;;4.18;2.10;;;12.90;99.90;;;-141.84;58.82;19726.44;5029733;28;20202;-66
2022/11/05 11:06:51;;;;;;;5.53;2.10;;;12.90;99.90;;;-141.84;59.18;19744.75;5026892;28;20226;-66
2022/11/05 11:09:24;;;;;;;9.77;2.47;;;13.00;99.90;;;-141.84;58.25;19720.34;5033316;28;20247;-67
2022/11/05 11:12:05;;;;;;;6.85;2.65;;;12.90;99.90;;;-141.84;57.63;19734.56;5033265;28;20241;-65